Time,TemperatureF,DewpointF,PressureIn,WindDirection,WindDirectionDegrees,WindSpeedMPH,WindSpeedGustMPH,Humidity,HourlyPrecipIn,Conditions,Clouds,dailyrainin,SolarRadiationWatts/m^2,SoftwareType,DateUTC
2013-05-24 00:22:00,40.0,10.0,-100.00,ENE,75,5.0,9.0,28,-99.99,,,-99.99,0.000000,,2013-05-24 07:22:00,
2013-05-24 01:22:00,41.0,7.0,-100.00,SSE,150,1.0,3.0,24,-99.99,,,-99.99,0.000000,,2013-05-24 08:22:00,
2013-05-24 02:21:00,39.0,10.0,-100.00,East,85,3.0,4.0,30,-99.99,,,-99.99,0.000000,,2013-05-24 09:21:00,
2013-05-24 03:22:00,41.0,-6.0,-100.00,ESE,106,3.0,5.0,13,-99.99,,,-99.99,0.000000,,2013-05-24 10:22:00,
2013-05-24 04:22:00,41.0,-6.0,-100.00,SSE,161,1.0,2.0,13,-99.99,,,-99.99,0.000000,,2013-05-24 11:22:00,
2013-05-24 05:21:00,39.0,5.0,-100.00,WNW,297,1.0,2.0,24,-99.99,,,-99.99,0.000000,,2013-05-24 12:21:00,
2013-05-24 05:30:00,38.0,12.0,-100.00,SW,232,2.0,4.0,33,-99.99,,,-99.99,0.000000,,2013-05-24 12:30:00,
2013-05-24 06:21:00,38.0,12.0,-100.00,SW,232,2.0,4.0,33,-99.99,,,-99.99,0.000000,,2013-05-24 13:21:00,
2013-05-24 07:21:00,40.0,14.0,-100.00,SSE,159,3.0,4.0,34,-99.99,,,-99.99,32.000000,,2013-05-24 14:21:00,
2013-05-24 09:22:00,45.0,-6.0,-100.00,SSE,157,4.0,8.0,11,-99.99,,,-99.99,380.000000,,2013-05-24 16:22:00,
2013-05-24 09:30:00,46.0,0.0,-100.00,SE,146,5.0,10.0,14,-99.99,,,-99.99,538.000000,,2013-05-24 16:30:00,
2013-05-24 10:22:00,46.0,0.0,-100.00,SE,146,5.0,10.0,14,-99.99,,,-99.99,538.000000,,2013-05-24 17:22:00,
2013-05-24 11:21:00,49.0,7.0,-100.00,SSE,155,5.0,10.0,18,-99.99,,,-99.99,662.000000,,2013-05-24 18:21:00,
2013-05-24 11:30:00,50.0,22.0,-100.00,South,170,3.0,8.0,33,-99.99,,,-99.99,748.000000,,2013-05-24 18:30:00,
2013-05-24 12:21:00,50.0,22.0,-100.00,South,170,3.0,8.0,33,-99.99,,,-99.99,748.000000,,2013-05-24 19:21:00,
2013-05-24 12:30:00,50.0,29.0,-100.00,South,180,3.0,10.0,44,-99.99,,,-99.99,789.000000,,2013-05-24 19:30:00,
2013-05-24 13:21:00,50.0,29.0,-100.00,South,180,3.0,10.0,44,-99.99,,,-99.99,789.000000,,2013-05-24 20:21:00,
2013-05-24 13:30:00,50.0,29.0,-100.00,South,179,3.0,8.0,45,-99.99,,,-99.99,785.000000,,2013-05-24 20:30:00,
2013-05-24 14:21:00,50.0,29.0,-100.00,South,179,3.0,8.0,45,-99.99,,,-99.99,785.000000,,2013-05-24 21:21:00,
2013-05-24 14:30:00,51.0,29.0,-100.00,SSW,194,4.0,9.0,42,-99.99,,,-99.99,729.000000,,2013-05-24 21:30:00,
2013-05-24 15:22:00,51.0,29.0,-100.00,SSW,194,4.0,9.0,42,-99.99,,,-99.99,729.000000,,2013-05-24 22:22:00,
2013-05-24 15:30:00,51.0,28.0,-100.00,South,178,4.0,16.0,42,-99.99,,,-99.99,215.000000,,2013-05-24 22:30:00,
2013-05-24 16:30:00,50.0,28.0,-100.00,SSW,196,3.0,8.0,43,-99.99,,,-99.99,36.000000,,2013-05-24 23:30:00,
2013-05-24 17:21:00,50.0,28.0,-100.00,SSW,196,3.0,8.0,43,-99.99,,,-99.99,36.000000,,2013-05-25 00:21:00,
2013-05-24 17:30:00,49.0,28.0,-100.00,SW,228,3.0,9.0,44,-99.99,,,-99.99,65.000000,,2013-05-25 00:30:00,
2013-05-24 18:22:00,49.0,28.0,-100.00,SW,228,3.0,9.0,44,-99.99,,,-99.99,65.000000,,2013-05-25 01:22:00,
2013-05-24 18:30:00,47.0,27.0,-100.00,West,264,3.0,6.0,45,-99.99,,,-99.99,182.000000,,2013-05-25 01:30:00,
2013-05-24 19:30:00,43.0,26.0,-100.00,WNW,285,1.0,3.0,51,-99.99,,,-99.99,22.000000,,2013-05-25 02:30:00,
2013-05-24 20:30:00,39.0,25.0,-100.00,WNW,301,2.0,3.0,57,-99.99,,,-99.99,0.000000,,2013-05-25 03:30:00,
2013-05-24 21:23:00,39.0,25.0,-100.00,WNW,301,2.0,3.0,57,-99.99,,,-99.99,0.000000,,2013-05-25 04:23:00,
2013-05-24 21:30:00,37.0,24.0,-100.00,NNW,331,1.0,2.0,58,-99.99,,,-99.99,0.000000,,2013-05-25 04:30:00,
2013-05-24 22:22:00,37.0,24.0,-100.00,NNW,331,1.0,2.0,58,-99.99,,,-99.99,0.000000,,2013-05-25 05:22:00,
2013-05-24 22:30:00,38.0,24.0,-100.00,NW,307,1.0,2.0,57,-99.99,,,-99.99,0.000000,,2013-05-25 05:30:00,
2013-05-24 23:30:00,38.0,24.0,-100.00,SSE,165,3.0,8.0,56,-99.99,,,-99.99,0.000000,,2013-05-25 06:30:00,